Humidity-temperature Sensor

Selected Measurement Type: Air Temperature

 
Air Temperature [°C]     6 entries per hour
Showing data from 8/7/2018 (00:00:00 Z) to 8/6/2018 (00:01:00 Z)
Previous Next [ Day | 3-Days | 7-Days ]
First Last
Prev [ Day | 3-Days | 7-Days ] Next
First Last

Start Time:     :
End Time:     :     
Time (in GMT) :00 :50 :40 :30 :20 :10
Previous Next [ Day | 3-Days | 7-Days ]
First Last
Prev [ Day | 3-Days | 7-Days ] Next
First Last


123 => good data
MM => data is determined as missing
-- => data not received/configured
Back to Top Back to Top
8/7/2018 00:00 to 23:10 28.39 27.99 27.71 27.25 28.48 28.41
8/6/2018 23:00 to 22:10 28.47 29.27 29.20 29.04 29.25 29.25
8/6/2018 22:00 to 21:10 28.95 29.09 28.91 29.07 28.85 28.74
8/6/2018 21:00 to 20:10 28.88 28.69 28.65 28.69 28.64 28.38
8/6/2018 20:00 to 19:10 28.41 28.45 28.50 28.51 28.34 28.37
8/6/2018 19:00 to 18:10 28.36 28.30 28.46 28.41 28.34 28.33
8/6/2018 18:00 to 17:10 28.21 28.16 28.07 28.15 28.13 28.17
8/6/2018 17:00 to 16:10 28.15 28.04 28.18 28.00 28.04 28.03
8/6/2018 16:00 to 15:10 28.07 28.01 28.01 28.03 28.00 28.02
8/6/2018 15:00 to 14:10 27.96 28.19 28.06 28.10 27.77 27.78
8/6/2018 14:00 to 13:10 27.71 27.78 27.58 27.58 27.49 27.31
8/6/2018 13:00 to 12:10 27.28 27.24 27.55 27.39 27.22 27.64
8/6/2018 12:00 to 11:10 27.78 27.86 27.92 27.87 27.87 27.88
8/6/2018 11:00 to 10:10 27.72 27.51 27.54 27.46 27.50 27.64
8/6/2018 10:00 to 9:10 27.84 27.85 27.78 27.75 27.76 27.70
8/6/2018 09:00 to 8:10 27.69 27.65 27.63 27.57 27.46 27.42
8/6/2018 08:00 to 7:10 27.29 27.34 27.28 27.21 27.12 27.14
8/6/2018 07:00 to 6:10 27.04 27.30 26.98 27.00 26.75 26.83
8/6/2018 06:00 to 5:10 26.85 27.35 27.55 28.11 27.81 27.44
8/6/2018 05:00 to 4:10 26.88 27.47 26.91 26.24 26.14 25.79
8/6/2018 04:00 to 3:10 25.59 25.42 25.52 25.61 25.75 26.17
8/6/2018 03:00 to 2:10 26.12 26.21 26.64 26.62 26.60 26.50
8/6/2018 02:00 to 1:10 27.20 28.33 28.43 28.32 28.44 27.99
8/6/2018 01:00 to 0:10 27.64 27.30 27.49 27.94 27.90 27.88